createdAt,value
2022-12-11T00:02:09.385Z,9.47
2022-12-11T00:04:22.827Z,9.46
2022-12-11T00:06:37.120Z,9.43
2022-12-11T00:08:51.752Z,9.38
2022-12-11T00:11:05.159Z,9.34
2022-12-11T00:13:18.627Z,9.32
2022-12-11T00:15:32.190Z,9.30
2022-12-11T00:17:45.603Z,9.26
2022-12-11T00:19:59.038Z,9.23
2022-12-11T00:22:12.440Z,9.18
2022-12-11T00:24:25.943Z,9.16
2022-12-11T00:26:39.283Z,9.13
2022-12-11T00:28:56.221Z,9.08
2022-12-11T00:31:13.763Z,9.04
2022-12-11T00:33:29.784Z,9.01
2022-12-11T00:35:44.418Z,8.99
2022-12-11T00:37:57.770Z,8.98
2022-12-11T00:40:12.277Z,8.97
2022-12-11T00:42:25.778Z,8.96
2022-12-11T00:44:39.376Z,8.97
2022-12-11T00:46:53.396Z,8.93
2022-12-11T00:49:06.619Z,8.86
2022-12-11T00:51:20.046Z,8.79
2022-12-11T00:53:33.689Z,8.71
2022-12-11T00:55:47.962Z,8.64
2022-12-11T00:58:01.434Z,8.58
2022-12-11T01:00:16.642Z,8.52
2022-12-11T01:02:29.977Z,8.44
2022-12-11T01:04:43.767Z,8.38
2022-12-11T01:06:57.045Z,8.36
2022-12-11T01:09:32.390Z,8.36
2022-12-11T01:11:46.699Z,8.36
2022-12-11T01:14:00.505Z,8.35
2022-12-11T01:16:20.544Z,8.34
2022-12-11T01:18:33.896Z,8.33
2022-12-11T01:20:47.685Z,8.30
2022-12-11T01:23:03.433Z,8.26
2022-12-11T01:25:17.939Z,8.26
2022-12-11T01:27:31.265Z,8.24
2022-12-11T01:29:44.921Z,8.24
2022-12-11T01:31:58.203Z,8.24
2022-12-11T01:34:11.691Z,8.23
2022-12-11T01:36:26.158Z,8.23
2022-12-11T01:38:39.503Z,8.24
2022-12-11T01:40:54.891Z,8.25
2022-12-11T01:43:08.116Z,8.26
2022-12-11T01:45:39.891Z,8.27
2022-12-11T01:47:53.413Z,8.29
2022-12-11T01:50:06.967Z,8.31
2022-12-11T01:52:23.311Z,8.34
2022-12-11T01:54:37.635Z,8.34
2022-12-11T01:56:53.583Z,8.34
2022-12-11T01:59:09.816Z,8.33
2022-12-11T02:01:45.342Z,8.33
2022-12-11T02:04:02.208Z,8.31
2022-12-11T02:06:36.418Z,8.30
2022-12-11T02:08:49.689Z,8.27
2022-12-11T02:11:12.871Z,8.25
2022-12-11T02:13:34.441Z,8.22
2022-12-11T02:15:58.648Z,8.22
2022-12-11T02:18:23.680Z,8.21
2022-12-11T02:20:41.715Z,8.20
2022-12-11T02:23:10.045Z,8.20
2022-12-11T02:25:30.618Z,8.20
2022-12-11T02:27:49.886Z,8.21
2022-12-11T02:30:08.226Z,8.21
2022-12-11T02:32:25.329Z,8.20
2022-12-11T02:34:43.572Z,8.20
2022-12-11T02:37:01.394Z,8.18
2022-12-11T02:39:18.968Z,8.17
2022-12-11T02:41:33.752Z,8.16
2022-12-11T02:43:49.071Z,8.15
2022-12-11T02:46:04.163Z,8.13
2022-12-11T02:48:18.586Z,8.11
2022-12-11T02:50:32.939Z,8.09
2022-12-11T02:52:49.222Z,8.09
2022-12-11T02:55:05.133Z,8.08
2022-12-11T02:57:24.999Z,8.07
2022-12-11T02:59:42.133Z,8.05
2022-12-11T03:01:55.644Z,8.04
2022-12-11T03:04:09.031Z,8.01
2022-12-11T03:06:25.599Z,7.98
2022-12-11T03:08:38.804Z,7.96
2022-12-11T03:10:52.139Z,7.94
2022-12-11T03:13:06.363Z,7.92
2022-12-11T03:15:22.305Z,7.91
2022-12-11T03:17:41.162Z,7.90
2022-12-11T03:20:07.615Z,7.89
2022-12-11T03:22:25.729Z,7.88
2022-12-11T03:24:42.423Z,7.88
2022-12-11T03:27:00.961Z,7.89
2022-12-11T03:29:22.456Z,7.91
2022-12-11T03:31:42.655Z,7.91
2022-12-11T03:34:01.712Z,7.92
2022-12-11T03:36:18.860Z,7.95
2022-12-11T03:38:36.449Z,7.99
2022-12-11T03:40:53.672Z,8.02
2022-12-11T03:43:09.243Z,8.07
2022-12-11T03:45:25.835Z,8.11
2022-12-11T03:47:41.167Z,8.12
2022-12-11T03:49:55.964Z,8.12
2022-12-11T03:52:10.983Z,8.11
2022-12-11T03:54:24.810Z,8.09
2022-12-11T03:56:40.589Z,8.08
2022-12-11T03:58:53.914Z,8.08
2022-12-11T04:01:07.301Z,8.08
2022-12-11T04:03:21.145Z,8.07
2022-12-11T04:05:34.581Z,8.05
2022-12-11T04:07:47.884Z,8.04
2022-12-11T04:10:01.413Z,8.04
2022-12-11T04:12:15.057Z,8.05
2022-12-11T04:14:44.610Z,8.04
2022-12-11T04:17:00.390Z,8.03
2022-12-11T04:19:33.124Z,8.02
2022-12-11T04:22:03.085Z,8.02
2022-12-11T04:24:19.986Z,8.00
2022-12-11T04:26:33.465Z,7.99
2022-12-11T04:28:48.423Z,7.98
2022-12-11T04:31:01.635Z,7.98
2022-12-11T04:33:14.955Z,7.99
2022-12-11T04:35:28.470Z,8.00
2022-12-11T04:37:42.690Z,8.00
2022-12-11T04:39:56.310Z,8.02
2022-12-11T04:42:09.642Z,8.03
2022-12-11T04:44:22.980Z,8.04
2022-12-11T04:46:36.468Z,8.05
2022-12-11T04:48:56.720Z,8.08
2022-12-11T04:51:10.694Z,8.07
2022-12-11T04:53:23.921Z,8.06
2022-12-11T04:55:37.296Z,8.06
2022-12-11T04:57:50.627Z,8.07
2022-12-11T05:00:05.892Z,8.07
2022-12-11T05:02:19.333Z,8.08
2022-12-11T05:04:36.415Z,8.09
2022-12-11T05:06:52.271Z,8.10
2022-12-11T05:09:05.481Z,8.12
2022-12-11T05:11:20.590Z,8.12
2022-12-11T05:13:35.720Z,8.13
2022-12-11T05:15:48.900Z,8.14
2022-12-11T05:18:02.146Z,8.14
2022-12-11T05:20:16.997Z,8.12
2022-12-11T05:22:30.260Z,8.09
2022-12-11T05:24:43.557Z,8.08
2022-12-11T05:26:56.736Z,8.07
2022-12-11T05:29:09.955Z,8.02
2022-12-11T05:31:25.412Z,7.96
2022-12-11T05:33:39.094Z,7.92
2022-12-11T05:35:55.795Z,7.87
2022-12-11T05:38:09.146Z,7.84
2022-12-11T05:40:22.734Z,7.79
2022-12-11T05:42:36.122Z,7.77
2022-12-11T05:44:49.559Z,7.75
2022-12-11T05:47:03.015Z,7.73
2022-12-11T05:49:19.762Z,7.71
2022-12-11T05:51:35.492Z,7.69
2022-12-11T05:53:49.620Z,7.65
2022-12-11T05:56:08.367Z,7.63
2022-12-11T05:58:21.764Z,7.62
2022-12-11T06:00:36.278Z,7.59
2022-12-11T06:02:49.965Z,7.57
2022-12-11T06:05:03.487Z,7.55
2022-12-11T06:07:16.878Z,7.53
2022-12-11T06:09:30.429Z,7.51
2022-12-11T06:11:43.796Z,7.49
2022-12-11T06:13:58.102Z,7.48
2022-12-11T06:16:13.928Z,7.46
2022-12-11T06:18:27.711Z,7.44
2022-12-11T06:20:41.236Z,7.45
2022-12-11T06:22:54.662Z,7.46
2022-12-11T06:25:08.573Z,7.45
2022-12-11T06:27:22.509Z,7.44
2022-12-11T06:29:35.962Z,7.43
2022-12-11T06:31:49.425Z,7.40
2022-12-11T06:34:02.900Z,7.39
2022-12-11T06:36:17.939Z,7.39
2022-12-11T06:38:31.387Z,7.40
2022-12-11T06:40:44.858Z,7.41
2022-12-11T06:42:58.151Z,7.41
2022-12-11T06:45:13.383Z,7.41
2022-12-11T06:47:26.945Z,7.41
2022-12-11T06:49:40.279Z,7.40
2022-12-11T06:51:53.616Z,7.40
2022-12-11T06:54:07.088Z,7.39
2022-12-11T06:56:21.629Z,7.38
2022-12-11T06:58:34.918Z,7.37
2022-12-11T07:00:48.582Z,7.37
2022-12-11T07:03:02.055Z,7.39
2022-12-11T07:05:15.850Z,7.41
2022-12-11T07:07:29.384Z,7.42
2022-12-11T07:09:44.312Z,7.41
2022-12-11T07:11:58.397Z,7.41
2022-12-11T07:14:12.315Z,7.42
2022-12-11T07:16:25.928Z,7.43
2022-12-11T07:18:39.822Z,7.44
2022-12-11T07:20:53.243Z,7.44
2022-12-11T07:23:06.634Z,7.46
2022-12-11T07:25:20.097Z,7.47
2022-12-11T07:27:33.393Z,7.47
2022-12-11T07:29:46.716Z,7.47
2022-12-11T07:32:00.803Z,7.45
2022-12-11T07:34:15.683Z,7.44
2022-12-11T07:36:30.068Z,7.43
2022-12-11T07:38:43.728Z,7.42
2022-12-11T07:40:57.358Z,7.39
2022-12-11T07:43:10.799Z,7.36
2022-12-11T07:45:27.761Z,7.34
2022-12-11T07:47:41.049Z,7.34
2022-12-11T07:49:54.587Z,7.35
2022-12-11T07:52:08.067Z,7.36
2022-12-11T07:54:22.268Z,7.36
2022-12-11T07:56:36.533Z,7.38
2022-12-11T07:58:50.142Z,7.39
2022-12-11T08:01:03.540Z,7.38
2022-12-11T08:03:16.962Z,7.38
2022-12-11T08:05:30.313Z,7.38
2022-12-11T08:07:43.534Z,7.37
2022-12-11T08:09:56.828Z,7.36
2022-12-11T08:12:10.367Z,7.35
2022-12-11T08:14:24.054Z,7.35
2022-12-11T08:16:37.786Z,7.36
2022-12-11T08:18:51.697Z,7.37
2022-12-11T08:21:08.058Z,7.38
2022-12-11T08:23:21.320Z,7.39
2022-12-11T08:25:35.861Z,7.40
2022-12-11T08:27:50.580Z,7.40
2022-12-11T08:30:04.220Z,7.40
2022-12-11T08:32:19.223Z,7.39
2022-12-11T08:34:33.874Z,7.38
2022-12-11T08:36:49.589Z,7.37
2022-12-11T08:39:03.834Z,7.36
2022-12-11T08:41:19.698Z,7.36
2022-12-11T08:43:33.516Z,7.35
2022-12-11T08:45:47.147Z,7.34
2022-12-11T08:48:01.929Z,7.32
2022-12-11T08:50:16.203Z,7.29
2022-12-11T08:52:32.563Z,7.25
2022-12-11T08:54:46.793Z,7.21
2022-12-11T08:57:00.447Z,7.16
2022-12-11T08:59:13.775Z,7.15
2022-12-11T09:01:29.089Z,7.15
2022-12-11T09:03:43.712Z,7.15
2022-12-11T09:05:57.158Z,7.16
2022-12-11T09:08:10.791Z,7.17
2022-12-11T09:10:24.585Z,7.17
2022-12-11T09:12:39.115Z,7.15
2022-12-11T09:14:52.286Z,7.12
2022-12-11T09:17:07.410Z,7.11
2022-12-11T09:19:20.993Z,7.11
2022-12-11T09:21:35.129Z,7.09
2022-12-11T09:23:48.843Z,7.06
2022-12-11T09:26:02.240Z,7.04
2022-12-11T09:28:15.638Z,7.04
2022-12-11T09:30:29.053Z,7.03
2022-12-11T09:32:42.867Z,7.01
2022-12-11T09:34:58.726Z,7.00
2022-12-11T09:37:12.254Z,6.99
2022-12-11T09:39:25.894Z,6.99
2022-12-11T09:41:49.602Z,6.98
2022-12-11T09:44:10.794Z,6.97
2022-12-11T09:46:24.992Z,6.95
2022-12-11T09:48:40.414Z,6.93
2022-12-11T09:50:55.291Z,6.91
2022-12-11T09:53:17.068Z,6.91
2022-12-11T09:55:36.307Z,6.90
2022-12-11T09:57:58.374Z,6.87
2022-12-11T10:00:23.864Z,6.85
2022-12-11T10:02:46.135Z,6.83
2022-12-11T10:05:16.950Z,6.80
2022-12-11T10:07:38.322Z,6.77
2022-12-11T10:09:59.801Z,6.74
2022-12-11T10:12:32.550Z,6.71
2022-12-11T10:14:59.718Z,6.67
2022-12-11T10:17:22.428Z,6.63
2022-12-11T10:19:36.878Z,6.59
2022-12-11T10:21:50.531Z,6.56
2022-12-11T10:24:08.304Z,6.54
2022-12-11T10:26:24.379Z,6.53
2022-12-11T10:28:38.284Z,6.50
2022-12-11T10:30:58.857Z,6.48
2022-12-11T10:33:22.092Z,6.46
2022-12-11T10:35:42.027Z,6.46
2022-12-11T10:37:56.312Z,6.47
2022-12-11T10:40:12.318Z,6.48
2022-12-11T10:42:27.300Z,6.49
2022-12-11T10:44:40.397Z,6.51
2022-12-11T10:47:06.235Z,6.53
2022-12-11T10:49:31.311Z,6.54
2022-12-11T10:51:44.918Z,6.52
2022-12-11T10:54:06.859Z,6.50
2022-12-11T10:56:28.161Z,6.49
2022-12-11T10:58:53.693Z,6.47
2022-12-11T11:01:14.107Z,6.47
2022-12-11T11:03:31.041Z,6.47
2022-12-11T11:05:49.389Z,6.45
2022-12-11T11:08:20.443Z,6.42
2022-12-11T11:10:34.126Z,6.40
2022-12-11T11:12:49.424Z,6.38
2022-12-11T11:15:14.347Z,6.35
2022-12-11T11:17:33.821Z,6.33
2022-12-11T11:19:53.099Z,6.30
2022-12-11T11:22:09.333Z,6.28
2022-12-11T11:24:39.309Z,6.25
2022-12-11T11:29:33.094Z,6.18
2022-12-11T11:31:47.046Z,6.15
2022-12-11T11:34:05.149Z,6.13
2022-12-11T11:36:27.948Z,6.10
2022-12-11T11:38:46.160Z,6.08
2022-12-11T11:41:07.695Z,6.05
2022-12-11T11:43:31.920Z,6.03
2022-12-11T11:45:53.636Z,6.01
2022-12-11T11:48:19.785Z,5.99
2022-12-11T11:50:38.780Z,5.95
2022-12-11T11:52:57.876Z,5.93
2022-12-11T11:55:21.980Z,5.91
2022-12-11T11:57:40.809Z,5.87
2022-12-11T11:59:58.410Z,5.86
2022-12-11T12:02:21.191Z,5.84
2022-12-11T12:04:38.415Z,5.84
2022-12-11T12:07:08.816Z,5.84
2022-12-11T12:09:34.552Z,5.84
2022-12-11T12:11:53.336Z,5.83
2022-12-11T12:14:50.740Z,5.83
2022-12-11T12:17:02.353Z,5.79
2022-12-11T12:19:26.668Z,5.75
2022-12-11T12:21:43.454Z,5.73
2022-12-11T12:24:17.557Z,5.70
2022-12-11T12:26:34.953Z,5.69
2022-12-11T12:28:55.925Z,5.68
2022-12-11T12:31:25.469Z,5.66
2022-12-11T12:33:48.805Z,5.64
2022-12-11T12:36:09.719Z,5.65
2022-12-11T12:38:30.678Z,5.64
2022-12-11T12:40:53.837Z,5.65
2022-12-11T12:43:20.518Z,5.66
2022-12-11T12:45:37.911Z,5.67
2022-12-11T12:47:53.626Z,5.68
2022-12-11T12:50:09.194Z,5.70
2022-12-11T12:52:26.460Z,5.71
2022-12-11T12:54:40.852Z,5.72
2022-12-11T12:56:54.731Z,5.72
2022-12-11T12:59:07.859Z,5.74
2022-12-11T13:01:25.513Z,5.78
2022-12-11T13:03:53.046Z,5.81
2022-12-11T13:06:09.371Z,5.82
2022-12-11T13:08:32.068Z,5.83
2022-12-11T13:10:46.620Z,5.84
2022-12-11T13:13:00.706Z,5.83
2022-12-11T13:15:30.930Z,5.82
2022-12-11T13:17:44.861Z,5.81
2022-12-11T13:20:22.375Z,5.79
2022-12-11T13:22:35.634Z,5.77
2022-12-11T13:25:02.848Z,5.77
2022-12-11T13:27:30.850Z,5.76
2022-12-11T13:29:45.346Z,5.76
2022-12-11T13:32:03.811Z,5.78
2022-12-11T13:34:25.017Z,5.79
2022-12-11T13:36:41.123Z,5.81
2022-12-11T13:38:57.576Z,5.82
2022-12-11T13:41:16.991Z,5.83
2022-12-11T13:43:33.664Z,5.82
2022-12-11T13:45:53.198Z,5.79
2022-12-11T13:48:07.608Z,5.78
2022-12-11T13:50:26.248Z,5.77
2022-12-11T13:52:39.773Z,5.77
2022-12-11T13:55:00.317Z,5.76
2022-12-11T13:57:23.996Z,5.78
2022-12-11T13:59:40.423Z,5.81
2022-12-11T14:01:54.622Z,5.81
2022-12-11T14:04:13.524Z,5.80
2022-12-11T14:06:27.374Z,5.80
2022-12-11T14:08:43.446Z,5.80
2022-12-11T14:10:59.466Z,5.80
2022-12-11T14:13:22.972Z,5.82
2022-12-11T14:15:39.768Z,5.84
2022-12-11T14:17:53.291Z,5.85
2022-12-11T14:20:10.732Z,5.86
2022-12-11T14:22:28.205Z,5.88
2022-12-11T14:24:51.767Z,5.91
2022-12-11T14:27:06.043Z,5.93
2022-12-11T14:29:31.413Z,5.94
2022-12-11T14:31:48.035Z,5.95
2022-12-11T14:34:05.580Z,5.96
2022-12-11T14:36:20.801Z,5.97
2022-12-11T14:38:38.580Z,5.97
2022-12-11T14:40:55.189Z,5.98
2022-12-11T14:43:12.930Z,5.99
2022-12-11T14:45:36.940Z,5.99
2022-12-11T14:47:50.667Z,6.00
2022-12-11T14:50:07.416Z,6.01
2022-12-11T14:52:27.069Z,6.01
2022-12-11T14:54:44.545Z,6.01
2022-12-11T14:56:58.385Z,6.00
2022-12-11T14:59:23.616Z,5.99
2022-12-11T15:01:40.781Z,5.98
2022-12-11T15:03:54.218Z,5.97
2022-12-11T15:06:25.297Z,5.97
2022-12-11T15:08:39.492Z,5.97
2022-12-11T15:11:10.631Z,5.96
2022-12-11T15:13:29.424Z,5.97
2022-12-11T15:15:50.496Z,5.97
2022-12-11T15:18:05.350Z,5.98
2022-12-11T15:20:29.760Z,5.99
2022-12-11T15:22:46.796Z,6.01
2022-12-11T15:25:01.030Z,6.01
2022-12-11T15:27:38.116Z,6.02
2022-12-11T15:29:51.257Z,6.03
2022-12-11T15:32:20.174Z,6.02
2022-12-11T15:34:39.373Z,6.01
2022-12-11T15:36:53.000Z,6.02
2022-12-11T15:39:09.843Z,6.02
2022-12-11T15:41:25.875Z,6.03
2022-12-11T15:43:42.211Z,6.03
2022-12-11T15:45:55.537Z,6.03
2022-12-11T15:48:09.405Z,6.04
2022-12-11T15:50:27.228Z,6.04
2022-12-11T15:52:40.759Z,6.05
2022-12-11T15:54:53.947Z,6.08
2022-12-11T15:57:11.140Z,6.09
2022-12-11T15:59:25.307Z,6.09
2022-12-11T16:01:38.525Z,6.10
2022-12-11T16:03:52.482Z,6.10
2022-12-11T16:06:05.900Z,6.08
2022-12-11T16:08:21.487Z,6.07
2022-12-11T16:10:34.808Z,6.05
2022-12-11T16:12:48.544Z,6.02
2022-12-11T16:15:01.933Z,5.99
2022-12-11T16:17:16.260Z,5.97
2022-12-11T16:19:29.485Z,5.94
2022-12-11T16:21:42.713Z,5.91
2022-12-11T16:23:55.879Z,5.89
2022-12-11T16:26:12.876Z,5.87
2022-12-11T16:28:26.377Z,5.85
2022-12-11T16:30:41.394Z,5.85
2022-12-11T16:32:55.127Z,5.86
2022-12-11T16:35:09.796Z,5.86
2022-12-11T16:37:23.290Z,5.86
2022-12-11T16:39:37.988Z,5.87
2022-12-11T16:41:51.683Z,5.88
2022-12-11T16:44:07.426Z,5.90
2022-12-11T16:46:23.931Z,5.91
2022-12-11T16:48:37.515Z,5.92
2022-12-11T16:50:50.849Z,5.92
2022-12-11T16:53:04.377Z,5.92
2022-12-11T16:55:22.338Z,5.93
2022-12-11T16:57:35.838Z,5.94
2022-12-11T16:59:50.280Z,5.96
2022-12-11T17:02:03.508Z,5.99
2022-12-11T17:04:16.689Z,6.01
2022-12-11T17:06:30.531Z,6.04
2022-12-11T17:08:43.957Z,6.06
2022-12-11T17:10:57.723Z,6.09
2022-12-11T17:13:11.125Z,6.13
2022-12-11T17:15:24.479Z,6.18
2022-12-11T17:17:37.708Z,6.24
2022-12-11T17:19:50.994Z,6.29
2022-12-11T17:22:04.741Z,6.34
2022-12-11T17:24:18.129Z,6.39
2022-12-11T17:26:31.627Z,6.45
2022-12-11T17:28:45.458Z,6.50
2022-12-11T17:30:58.957Z,6.54
2022-12-11T17:33:12.250Z,6.58
2022-12-11T17:35:25.525Z,6.61
2022-12-11T17:37:38.854Z,6.65
2022-12-11T17:39:52.151Z,6.72
2022-12-11T17:42:05.619Z,6.78
2022-12-11T17:44:18.842Z,6.84
2022-12-11T17:46:32.896Z,6.88
2022-12-11T17:48:46.485Z,6.93
2022-12-11T17:50:59.903Z,6.97
2022-12-11T17:53:14.107Z,7.02
2022-12-11T17:55:27.483Z,7.07
2022-12-11T17:57:40.999Z,7.11
2022-12-11T17:59:56.840Z,7.14
2022-12-11T18:02:10.203Z,7.17
2022-12-11T18:04:23.464Z,7.19
2022-12-11T18:06:36.612Z,7.20
2022-12-11T18:08:50.356Z,7.22
2022-12-11T18:11:07.269Z,7.25
2022-12-11T18:13:20.909Z,7.27
2022-12-11T18:15:34.123Z,7.29
2022-12-11T18:17:47.520Z,7.28
2022-12-11T18:20:00.772Z,7.27
2022-12-11T18:22:14.116Z,7.27
2022-12-11T18:24:33.008Z,7.29
2022-12-11T18:26:46.755Z,7.32
2022-12-11T18:29:00.072Z,7.34
2022-12-11T18:31:13.480Z,7.36
2022-12-11T18:33:26.706Z,7.39
2022-12-11T18:35:39.896Z,7.42
2022-12-11T18:37:53.208Z,7.45
2022-12-11T18:40:06.775Z,7.48
2022-12-11T18:42:35.178Z,7.54
2022-12-11T18:44:48.599Z,7.61
2022-12-11T18:47:01.781Z,7.68
2022-12-11T18:49:16.715Z,7.73
2022-12-11T18:51:30.006Z,7.78
2022-12-11T18:53:43.613Z,7.82
2022-12-11T18:56:00.323Z,7.84
2022-12-11T18:58:14.252Z,7.86
2022-12-11T19:00:27.976Z,7.86
2022-12-11T19:02:41.453Z,7.84
2022-12-11T19:04:54.790Z,7.80
2022-12-11T19:07:08.273Z,7.79
2022-12-11T19:09:21.650Z,7.78
2022-12-11T19:11:36.887Z,7.78
2022-12-11T19:13:50.653Z,7.81
2022-12-11T19:16:04.286Z,7.84
2022-12-11T19:18:17.557Z,7.88
2022-12-11T19:20:48.735Z,7.90
2022-12-11T19:23:03.401Z,7.93
2022-12-11T19:25:17.210Z,7.97
2022-12-11T19:27:31.077Z,8.02
2022-12-11T19:29:45.175Z,8.05
2022-12-11T19:31:58.911Z,8.07
2022-12-11T19:34:12.087Z,8.10
2022-12-11T19:36:27.583Z,8.06
2022-12-11T19:38:40.986Z,8.03
2022-12-11T19:40:54.207Z,8.02
2022-12-11T19:43:07.503Z,8.00
2022-12-11T19:45:20.999Z,8.01
2022-12-11T19:47:34.238Z,7.99
2022-12-11T19:49:47.099Z,7.99
2022-12-11T19:51:57.525Z,7.98
2022-12-11T19:54:13.343Z,7.97
2022-12-11T19:56:26.905Z,7.99
2022-12-11T19:58:40.111Z,8.01
2022-12-11T20:00:53.479Z,8.02
2022-12-11T20:03:06.815Z,8.04
2022-12-11T20:05:20.139Z,8.07
2022-12-11T20:07:33.324Z,8.09
2022-12-11T20:09:46.600Z,8.12
2022-12-11T20:11:59.686Z,8.13
2022-12-11T20:14:13.010Z,8.12
2022-12-11T20:16:53.346Z,8.14
2022-12-11T20:18:59.843Z,8.16
2022-12-11T20:21:16.122Z,8.18
2022-12-11T20:23:30.523Z,8.20
2022-12-11T20:25:44.701Z,8.23
2022-12-11T20:27:59.297Z,8.27
2022-12-11T20:30:15.596Z,8.32
2022-12-11T20:32:28.868Z,8.38
2022-12-11T20:34:42.463Z,8.44
2022-12-11T20:36:56.809Z,8.48
2022-12-11T20:39:10.052Z,8.49
2022-12-11T20:41:24.926Z,8.51
2022-12-11T20:43:38.217Z,8.51
2022-12-11T20:45:56.183Z,8.50
2022-12-11T20:48:09.920Z,8.48
2022-12-11T20:50:23.867Z,8.44
2022-12-11T20:52:37.976Z,8.42
2022-12-11T20:54:51.392Z,8.40
2022-12-11T20:57:04.925Z,8.39
2022-12-11T20:59:18.378Z,8.37
2022-12-11T21:01:33.056Z,8.38
2022-12-11T21:03:48.024Z,8.39
2022-12-11T21:06:01.453Z,8.42
2022-12-11T21:08:15.187Z,8.42
2022-12-11T21:10:28.795Z,8.44
2022-12-11T21:12:42.130Z,8.44
2022-12-11T21:14:55.806Z,8.44
2022-12-11T21:17:09.317Z,8.40
2022-12-11T21:19:24.471Z,8.35
2022-12-11T21:21:40.959Z,8.29
2022-12-11T21:23:54.562Z,8.26
2022-12-11T21:26:08.319Z,8.23
2022-12-11T21:28:22.021Z,8.20
2022-12-11T21:30:35.438Z,8.13
2022-12-11T21:32:48.982Z,8.05
2022-12-11T21:35:02.403Z,8.00
2022-12-11T21:37:15.730Z,7.99
2022-12-11T21:39:29.833Z,7.98
2022-12-11T21:41:44.828Z,7.99
2022-12-11T21:46:33.609Z,7.95
2022-12-11T21:48:47.368Z,7.97
2022-12-11T21:51:07.557Z,7.98
2022-12-11T21:53:20.737Z,7.98
2022-12-11T21:55:34.009Z,7.97
2022-12-11T21:57:47.334Z,7.93
2022-12-11T22:00:00.599Z,7.93
2022-12-11T22:02:14.432Z,7.96
2022-12-11T22:04:27.805Z,7.99
2022-12-11T22:06:43.222Z,8.01
2022-12-11T22:08:56.641Z,8.02
2022-12-11T22:11:10.085Z,8.04
2022-12-11T22:13:23.678Z,8.03
2022-12-11T22:15:36.872Z,8.02
2022-12-11T22:17:50.029Z,7.99
2022-12-11T22:20:03.192Z,7.97
2022-12-11T22:22:16.802Z,7.96
2022-12-11T22:24:29.999Z,7.95
2022-12-11T22:26:43.642Z,7.93
2022-12-11T22:28:57.437Z,7.90
2022-12-11T22:31:13.021Z,7.90
2022-12-11T22:33:26.343Z,7.92
2022-12-11T22:35:39.472Z,7.93
2022-12-11T22:37:53.121Z,7.92
2022-12-11T22:40:06.826Z,7.92
2022-12-11T22:42:20.444Z,7.92
2022-12-11T22:44:33.725Z,7.93
2022-12-11T22:46:50.309Z,7.96
2022-12-11T22:49:04.554Z,7.98
2022-12-11T22:51:18.192Z,8.00
2022-12-11T22:53:31.619Z,8.02
2022-12-11T22:55:46.303Z,8.03
2022-12-11T22:57:59.664Z,8.04
2022-12-11T23:00:16.221Z,8.06
2022-12-11T23:02:29.618Z,8.06
2022-12-11T23:04:42.939Z,8.05
2022-12-11T23:06:56.173Z,8.04
2022-12-11T23:09:09.679Z,8.04
2022-12-11T23:11:26.033Z,8.03
2022-12-11T23:13:39.311Z,8.03
2022-12-11T23:15:54.296Z,8.03
2022-12-11T23:18:08.262Z,8.03
2022-12-11T23:20:21.580Z,8.03
2022-12-11T23:22:35.097Z,8.04
2022-12-11T23:24:48.438Z,8.05
2022-12-11T23:27:01.601Z,8.07
2022-12-11T23:29:15.151Z,8.10
2022-12-11T23:31:29.644Z,8.14
2022-12-11T23:33:43.044Z,8.14
2022-12-11T23:35:56.404Z,8.15
2022-12-11T23:38:09.634Z,8.17
2022-12-11T23:40:23.009Z,8.18
2022-12-11T23:42:36.692Z,8.20
2022-12-11T23:44:49.950Z,8.22
2022-12-11T23:47:03.167Z,8.26
2022-12-11T23:49:16.461Z,8.28
2022-12-11T23:51:31.028Z,8.31
2022-12-11T23:53:44.361Z,8.34
2022-12-11T23:55:58.023Z,8.35
2022-12-11T23:58:11.831Z,8.38
